Las Vegas, Nevada
Traffic Map
Current Weather Conditions
Las Vegas, Nevada
Broken Clouds
Broken Clouds
20°
Feels Like: 20°
Wind Chill: 20° Ceiling: 15000
Heat Index: 20° Visibility: 10mi
Dew Point: -7° Wind: 3mph
Humidity: 16% Direction: 210° (SSW)
Pressure: 29.87in Gusts: 0mph
Raw Report DataKLAS 191056Z 21003KT 10SM SCT120 BKN150 BKN220 20/M07 A2987 RMK AO2 SLP094 VIRGA DSNT W T02001067
Traffic Incident Summary
Active as of:
Severity:
Category:
InformationThere was an issue retrieving the traffic information for this location. Please try a different location or try again shortly.
Advertisements